createdAt,value
2018-09-18T00:00:35.228Z,11.90
2018-09-18T00:03:03.988Z,11.50
2018-09-18T00:05:32.619Z,12.77
2018-09-18T00:08:01.517Z,11.23
2018-09-18T00:10:30.404Z,10.13
2018-09-18T00:12:59.054Z,9.80
2018-09-18T00:15:27.714Z,9.47
2018-09-18T00:17:56.430Z,5.50
2018-09-18T00:20:25.042Z,7.70
2018-09-18T00:22:53.794Z,10.17
2018-09-18T00:25:22.631Z,9.53
2018-09-18T00:27:51.253Z,7.73
2018-09-18T00:30:19.922Z,11.47
2018-09-18T00:32:48.551Z,8.50
2018-09-18T00:35:17.193Z,9.33
2018-09-18T00:37:45.849Z,7.90
2018-09-18T00:40:14.510Z,10.40
2018-09-18T00:42:43.131Z,12.17
2018-09-18T00:45:11.903Z,10.33
2018-09-18T00:47:40.590Z,10.23
2018-09-18T00:50:09.422Z,10.97
2018-09-18T00:52:38.054Z,10.27
2018-09-18T00:55:09.524Z,9.40
2018-09-18T00:57:38.258Z,9.40
2018-09-18T01:00:07.389Z,10.20
2018-09-18T01:02:36.040Z,8.73
2018-09-18T01:05:04.978Z,15.23
2018-09-18T01:07:33.770Z,10.97
2018-09-18T01:10:02.436Z,10.93
2018-09-18T01:12:31.200Z,14.17
2018-09-18T01:15:00.073Z,10.70
2018-09-18T01:17:28.714Z,11.27
2018-09-18T01:19:57.392Z,11.27
2018-09-18T01:22:26.010Z,10.33
2018-09-18T01:24:54.658Z,10.37
2018-09-18T01:27:23.362Z,10.03
2018-09-18T01:29:51.996Z,10.77
2018-09-18T01:32:20.614Z,11.03
2018-09-18T01:34:49.296Z,11.13
2018-09-18T01:37:17.992Z,11.77
2018-09-18T01:39:46.712Z,10.33
2018-09-18T01:42:15.504Z,10.40
2018-09-18T01:44:44.137Z,11.10
2018-09-18T01:47:12.778Z,9.97
2018-09-18T01:49:41.420Z,10.90
2018-09-18T01:52:10.289Z,10.23
2018-09-18T01:54:39.204Z,12.97
2018-09-18T01:57:08.094Z,10.37
2018-09-18T01:59:36.908Z,11.33
2018-09-18T02:02:05.671Z,9.60
2018-09-18T02:04:34.295Z,9.93
2018-09-18T02:07:03.101Z,14.03
2018-09-18T02:09:31.775Z,9.47
2018-09-18T02:12:00.421Z,10.10
2018-09-18T02:14:29.039Z,9.20
2018-09-18T02:16:57.652Z,10.43
2018-09-18T02:19:26.352Z,9.20
2018-09-18T02:21:55.025Z,9.07
2018-09-18T02:24:23.705Z,9.53
2018-09-18T02:26:52.356Z,8.57
2018-09-18T02:29:21.131Z,8.83
2018-09-18T02:31:49.719Z,8.57
2018-09-18T02:34:18.446Z,8.50
2018-09-18T02:36:47.044Z,8.57
2018-09-18T02:39:15.684Z,9.73
2018-09-18T02:41:44.742Z,9.23
2018-09-18T02:44:13.350Z,7.93
2018-09-18T02:46:42.178Z,7.80
2018-09-18T02:49:10.786Z,9.40
2018-09-18T02:51:39.446Z,7.80
2018-09-18T02:54:08.044Z,8.37
2018-09-18T02:56:36.675Z,10.53
2018-09-18T02:59:05.472Z,7.17
2018-09-18T03:01:34.126Z,9.73
2018-09-18T03:04:02.893Z,8.17
2018-09-18T03:06:31.533Z,9.17
2018-09-18T03:09:00.180Z,8.33
2018-09-18T03:11:29.170Z,10.30
2018-09-18T03:13:57.779Z,8.33
2018-09-18T03:16:26.623Z,7.77
2018-09-18T03:18:55.468Z,7.80
2018-09-18T03:21:24.343Z,9.10
2018-09-18T03:23:52.970Z,7.83
2018-09-18T03:26:21.895Z,7.67
2018-09-18T03:28:50.504Z,8.10
2018-09-18T03:31:19.137Z,7.73
2018-09-18T03:33:47.766Z,7.43
2018-09-18T03:36:16.402Z,7.57
2018-09-18T03:38:45.042Z,7.57
2018-09-18T03:41:13.703Z,9.30
2018-09-18T03:43:42.567Z,7.70
2018-09-18T03:46:11.261Z,7.20
2018-09-18T03:48:39.927Z,8.13
2018-09-18T03:51:09.090Z,7.70
2018-09-18T03:53:37.726Z,8.47
2018-09-18T03:56:06.496Z,8.20
2018-09-18T03:58:35.126Z,8.50
2018-09-18T04:01:03.822Z,8.03
2018-09-18T04:03:32.502Z,8.17
2018-09-18T04:06:01.285Z,7.80
2018-09-18T04:08:29.906Z,9.30
2018-09-18T04:10:58.531Z,7.97
2018-09-18T04:13:27.207Z,7.83
2018-09-18T04:15:55.846Z,8.30
2018-09-18T04:18:26.276Z,8.77
2018-09-18T04:20:55.183Z,11.30
2018-09-18T04:23:24.097Z,8.37
2018-09-18T04:25:52.681Z,10.17
2018-09-18T04:28:21.501Z,8.37
2018-09-18T04:30:50.175Z,9.93
2018-09-18T04:33:19.049Z,7.57
2018-09-18T04:35:47.791Z,8.73
2018-09-18T04:38:16.454Z,8.73
2018-09-18T04:40:45.118Z,8.90
2018-09-18T04:43:13.807Z,8.33
2018-09-18T04:45:42.486Z,8.67
2018-09-18T04:48:11.209Z,8.67
2018-09-18T04:50:39.939Z,8.13
2018-09-18T04:53:08.633Z,8.50
2018-09-18T04:55:37.297Z,8.63
2018-09-18T04:58:06.348Z,8.83
2018-09-18T05:00:35.022Z,8.27
2018-09-18T05:03:03.704Z,8.13
2018-09-18T05:05:32.486Z,8.70
2018-09-18T05:08:01.138Z,10.07
2018-09-18T05:10:29.742Z,8.07
2018-09-18T05:12:58.406Z,8.67
2018-09-18T05:15:27.028Z,9.03
2018-09-18T05:17:55.702Z,9.10
2018-09-18T05:20:24.458Z,8.27
2018-09-18T05:22:53.100Z,11.63
2018-09-18T05:25:21.843Z,10.03
2018-09-18T05:27:50.501Z,8.37
2018-09-18T05:30:19.278Z,8.63
2018-09-18T05:32:47.975Z,8.33
2018-09-18T05:35:23.270Z,8.47
2018-09-18T05:37:51.974Z,8.20
2018-09-18T05:40:20.685Z,8.87
2018-09-18T05:42:49.428Z,8.13
2018-09-18T05:45:18.124Z,10.90
2018-09-18T05:47:46.844Z,9.03
2018-09-18T05:50:15.468Z,8.00
2018-09-18T05:52:44.154Z,8.70
2018-09-18T05:55:12.838Z,9.53
2018-09-18T05:57:41.589Z,8.97
2018-09-18T06:00:10.449Z,8.93
2018-09-18T06:02:39.085Z,9.13
2018-09-18T06:05:07.810Z,7.50
2018-09-18T06:07:36.500Z,8.43
2018-09-18T06:10:05.782Z,8.30
2018-09-18T06:12:34.476Z,8.63
2018-09-18T06:15:03.080Z,8.60
2018-09-18T06:17:31.722Z,9.03
2018-09-18T06:20:00.342Z,8.00
2018-09-18T06:22:28.990Z,8.73
2018-09-18T06:24:57.694Z,9.37
2018-09-18T06:27:26.598Z,11.10
2018-09-18T06:29:55.224Z,9.47
2018-09-18T06:32:24.137Z,7.97
2018-09-18T06:34:52.813Z,7.50
2018-09-18T06:37:21.538Z,7.93
2018-09-18T06:39:50.196Z,7.07
2018-09-18T06:42:18.947Z,7.40
2018-09-18T06:44:48.404Z,8.30
2018-09-18T06:47:17.488Z,7.00
2018-09-18T06:49:46.164Z,8.00
2018-09-18T06:52:14.843Z,7.13
2018-09-18T06:54:43.490Z,8.33
2018-09-18T06:57:12.134Z,9.10
2018-09-18T06:59:40.813Z,8.67
2018-09-18T07:02:09.475Z,8.00
2018-09-18T07:04:38.156Z,7.33
2018-09-18T07:07:06.849Z,7.80
2018-09-18T07:09:35.712Z,8.20
2018-09-18T07:12:04.389Z,6.27
2018-09-18T07:14:33.081Z,6.50
2018-09-18T07:17:02.010Z,6.47
2018-09-18T07:19:31.033Z,6.40
2018-09-18T07:21:59.792Z,8.40
2018-09-18T07:24:28.472Z,6.90
2018-09-18T07:26:57.126Z,6.67
2018-09-18T07:29:25.856Z,6.17
2018-09-18T07:31:54.492Z,6.67
2018-09-18T07:34:23.195Z,6.10
2018-09-18T07:36:51.873Z,6.50
2018-09-18T07:39:20.528Z,5.70
2018-09-18T07:41:49.257Z,6.30
2018-09-18T07:44:17.922Z,7.30
2018-09-18T07:46:46.728Z,6.20
2018-09-18T07:49:15.540Z,8.70
2018-09-18T07:51:44.346Z,8.70
2018-09-18T07:54:13.040Z,7.03
2018-09-18T07:56:41.674Z,10.17
2018-09-18T07:59:10.492Z,5.90
2018-09-18T08:01:39.325Z,9.07
2018-09-18T08:04:08.270Z,5.73
2018-09-18T08:06:37.009Z,7.97
2018-09-18T08:09:08.765Z,10.57
2018-09-18T08:11:37.684Z,6.90
2018-09-18T08:14:06.404Z,9.17
2018-09-18T08:16:35.061Z,5.70
2018-09-18T08:19:03.819Z,5.83
2018-09-18T08:21:32.407Z,7.53
2018-09-18T08:24:01.053Z,6.93
2018-09-18T08:26:29.723Z,5.17
2018-09-18T08:28:58.379Z,5.67
2018-09-18T08:31:27.084Z,6.00
2018-09-18T08:33:56.107Z,4.97
2018-09-18T08:36:24.789Z,7.77
2018-09-18T08:38:53.549Z,4.73
2018-09-18T08:41:22.438Z,6.17
2018-09-18T08:43:51.150Z,8.50
2018-09-18T08:46:20.019Z,4.40
2018-09-18T08:48:54.029Z,6.40
2018-09-18T08:51:22.914Z,6.00
2018-09-18T08:53:51.602Z,8.40
2018-09-18T08:56:20.341Z,4.00
2018-09-18T08:58:49.718Z,4.83
2018-09-18T09:01:18.616Z,5.90
2018-09-18T09:03:47.474Z,4.67
2018-09-18T09:06:16.272Z,6.20
2018-09-18T09:08:45.396Z,3.87
2018-09-18T09:11:13.978Z,5.57
2018-09-18T09:13:42.786Z,3.73
2018-09-18T09:16:11.523Z,5.63
2018-09-18T09:18:40.446Z,4.10
2018-09-18T09:21:09.180Z,5.70
2018-09-18T09:23:37.794Z,10.17
2018-09-18T09:26:07.089Z,6.77
2018-09-18T09:28:35.779Z,5.33
2018-09-18T09:31:04.500Z,3.87
2018-09-18T09:33:33.180Z,5.30
2018-09-18T09:36:01.860Z,5.07
2018-09-18T09:38:30.512Z,6.30
2018-09-18T09:40:59.180Z,3.80
2018-09-18T09:43:27.845Z,3.83
2018-09-18T09:45:56.740Z,4.77
2018-09-18T09:48:25.476Z,5.93
2018-09-18T09:50:54.207Z,6.10
2018-09-18T09:53:22.982Z,4.13
2018-09-18T09:55:51.788Z,4.97
2018-09-18T09:58:20.627Z,4.17
2018-09-18T10:00:54.792Z,6.37
2018-09-18T10:03:23.494Z,4.63
2018-09-18T10:05:52.310Z,5.03
2018-09-18T10:08:21.274Z,5.60
2018-09-18T10:10:50.084Z,4.10
2018-09-18T10:13:18.599Z,6.50
2018-09-18T10:15:47.236Z,6.67
2018-09-18T10:18:16.082Z,5.10
2018-09-18T10:20:44.723Z,4.73
2018-09-18T10:23:13.505Z,4.77
2018-09-18T10:25:48.613Z,14.20
2018-09-18T10:28:17.217Z,4.43
2018-09-18T10:30:45.924Z,3.57
2018-09-18T10:33:14.583Z,5.73
2018-09-18T10:35:43.291Z,4.30
2018-09-18T10:38:12.030Z,3.27
2018-09-18T10:40:40.803Z,3.40
2018-09-18T10:43:09.612Z,5.63
2018-09-18T10:45:38.275Z,6.00
2018-09-18T10:48:06.618Z,3.07
2018-09-18T10:50:35.464Z,5.30
2018-09-18T10:53:04.165Z,3.37
2018-09-18T10:55:32.933Z,3.73
2018-09-18T10:58:01.574Z,6.27
2018-09-18T11:00:30.244Z,4.73
2018-09-18T11:02:58.922Z,3.43
2018-09-18T11:05:27.668Z,3.30
2018-09-18T11:07:56.660Z,6.93
2018-09-18T11:10:25.443Z,4.77
2018-09-18T11:12:54.198Z,4.43
2018-09-18T11:15:22.990Z,4.37
2018-09-18T11:17:51.656Z,3.53
2018-09-18T11:20:20.355Z,4.33
2018-09-18T11:22:48.967Z,6.20
2018-09-18T11:25:17.905Z,3.03
2018-09-18T11:27:46.534Z,4.63
2018-09-18T11:30:15.235Z,3.13
2018-09-18T11:32:43.956Z,6.20
2018-09-18T11:35:12.859Z,4.50
2018-09-18T11:37:41.630Z,4.77
2018-09-18T11:40:10.354Z,5.33
2018-09-18T11:42:38.991Z,3.33
2018-09-18T11:45:07.668Z,4.50
2018-09-18T11:47:36.658Z,3.43
2018-09-18T11:50:12.453Z,4.20
2018-09-18T11:52:41.187Z,6.80
2018-09-18T11:55:09.814Z,4.03
2018-09-18T11:57:38.685Z,4.90
2018-09-18T12:00:08.042Z,3.77
2018-09-18T12:02:36.832Z,3.87
2018-09-18T12:05:05.820Z,4.70
2018-09-18T12:07:34.559Z,5.50
2018-09-18T12:10:03.483Z,3.33
2018-09-18T12:12:32.339Z,3.63
2018-09-18T12:15:01.012Z,7.83
2018-09-18T12:17:30.062Z,5.20
2018-09-18T12:19:58.909Z,6.53
2018-09-18T12:22:27.683Z,4.60
2018-09-18T12:24:56.414Z,6.50
2018-09-18T12:27:25.234Z,5.50
2018-09-18T12:29:53.890Z,5.43
2018-09-18T12:32:22.604Z,6.90
2018-09-18T12:34:51.249Z,5.83
2018-09-18T12:37:19.870Z,4.80
2018-09-18T12:39:48.610Z,5.07
2018-09-18T12:42:17.376Z,5.37
2018-09-18T12:44:46.090Z,4.50
2018-09-18T12:47:14.778Z,4.50
2018-09-18T12:49:43.775Z,9.83
2018-09-18T12:52:12.436Z,4.70
2018-09-18T12:54:41.072Z,5.93
2018-09-18T12:57:10.156Z,5.30
2018-09-18T12:59:41.637Z,6.17
2018-09-18T13:02:10.495Z,5.70
2018-09-18T13:04:39.113Z,4.90
2018-09-18T13:07:08.005Z,6.13
2018-09-18T13:09:36.946Z,7.20
2018-09-18T13:12:05.658Z,5.87
2018-09-18T13:14:34.295Z,7.43
2018-09-18T13:17:03.280Z,8.67
2018-09-18T13:19:32.112Z,5.03
2018-09-18T13:22:00.777Z,8.40
2018-09-18T13:24:29.484Z,8.23
2018-09-18T13:26:58.256Z,7.50
2018-09-18T13:29:26.946Z,8.77
2018-09-18T13:31:55.612Z,8.60
2018-09-18T13:34:24.454Z,7.03
2018-09-18T13:36:53.198Z,5.13
2018-09-18T13:39:21.872Z,5.40
2018-09-18T13:41:50.504Z,6.17
2018-09-18T13:44:19.326Z,8.77
2018-09-18T13:46:48.104Z,4.70
2018-09-18T13:49:16.963Z,5.60
2018-09-18T13:51:45.804Z,9.63
2018-09-18T13:54:15.561Z,7.73
2018-09-18T13:56:44.237Z,5.93
2018-09-18T13:59:12.877Z,5.20
2018-09-18T14:01:41.999Z,5.70
2018-09-18T14:04:10.901Z,4.93
2018-09-18T14:06:39.655Z,4.93
2018-09-18T14:09:09.576Z,6.53
2018-09-18T14:11:38.574Z,6.50
2018-09-18T14:14:07.800Z,3.70
2018-09-18T14:16:36.423Z,6.57
2018-09-18T14:19:05.054Z,5.07
2018-09-18T14:21:34.021Z,9.10
2018-09-18T14:24:02.717Z,4.90
2018-09-18T14:26:31.826Z,5.23
2018-09-18T14:29:00.448Z,5.97
2018-09-18T14:31:29.669Z,7.10
2018-09-18T14:33:58.414Z,6.50
2018-09-18T14:36:27.362Z,10.13
2018-09-18T14:38:56.094Z,3.67
2018-09-18T14:41:24.915Z,4.30
2018-09-18T14:43:53.627Z,5.20
2018-09-18T14:46:22.415Z,8.67
2018-09-18T14:48:51.230Z,4.30
2018-09-18T14:51:20.004Z,3.47
2018-09-18T14:53:48.727Z,3.83
2018-09-18T14:56:17.540Z,5.77
2018-09-18T14:58:46.561Z,6.63
2018-09-18T15:01:15.175Z,7.00
2018-09-18T15:03:43.864Z,4.23
2018-09-18T15:06:12.597Z,8.97
2018-09-18T15:08:41.399Z,5.40
2018-09-18T15:11:10.105Z,6.67
2018-09-18T15:13:38.913Z,20.30
2018-09-18T15:16:07.622Z,18.33
2018-09-18T15:18:36.255Z,93.63
2018-09-18T15:21:05.048Z,107.20
2018-09-18T15:23:33.794Z,147.80
2018-09-18T15:26:02.657Z,154.13
2018-09-18T15:28:31.405Z,150.20
2018-09-18T15:31:00.263Z,147.80
2018-09-18T15:33:35.527Z,136.37
2018-09-18T15:36:04.176Z,132.87
2018-09-18T15:38:33.195Z,120.73
2018-09-18T15:41:01.990Z,109.83
2018-09-18T15:43:30.889Z,64.20
2018-09-18T15:45:59.677Z,50.07
2018-09-18T15:48:28.355Z,39.43
2018-09-18T15:50:57.226Z,35.63
2018-09-18T15:53:28.846Z,34.77
2018-09-18T15:55:57.589Z,31.70
2018-09-18T15:58:26.539Z,33.90
2018-09-18T16:00:55.387Z,31.00
2018-09-18T16:03:24.065Z,38.13
2018-09-18T16:05:52.886Z,45.20
2018-09-18T16:08:21.723Z,44.60
2018-09-18T16:10:50.580Z,40.87
2018-09-18T16:13:19.296Z,46.60
2018-09-18T16:15:48.039Z,41.67
2018-09-18T16:18:17.873Z,45.73
2018-09-18T16:20:48.155Z,51.33
2018-09-18T16:23:18.578Z,54.10
2018-09-18T16:25:48.189Z,53.97
2018-09-18T16:28:17.009Z,47.90
2018-09-18T16:30:45.819Z,45.33
2018-09-18T16:33:14.809Z,43.90
2018-09-18T16:35:43.557Z,36.80
2018-09-18T16:38:12.211Z,34.30
2018-09-18T16:40:41.119Z,33.60
2018-09-18T16:43:10.033Z,28.80
2018-09-18T16:45:38.685Z,29.50
2018-09-18T16:48:07.397Z,26.30
2018-09-18T16:50:36.080Z,22.87
2018-09-18T16:53:04.775Z,23.33
2018-09-18T16:55:34.040Z,22.77
2018-09-18T16:58:02.753Z,22.43
2018-09-18T17:00:31.538Z,18.90
2018-09-18T17:03:00.251Z,17.73
2018-09-18T17:05:29.263Z,14.33
2018-09-18T17:07:58.033Z,14.37
2018-09-18T17:10:26.821Z,13.23
2018-09-18T17:12:55.451Z,13.60
2018-09-18T17:15:24.248Z,11.70
2018-09-18T17:17:53.160Z,12.83
2018-09-18T17:20:22.127Z,5.77
2018-09-18T17:22:51.062Z,6.30
2018-09-18T17:25:20.180Z,7.63
2018-09-18T17:27:49.163Z,7.50
2018-09-18T17:30:18.191Z,7.53
2018-09-18T17:32:47.051Z,3.90
2018-09-18T17:35:15.987Z,7.83
2018-09-18T17:37:44.862Z,6.43
2018-09-18T17:40:13.592Z,6.93
2018-09-18T17:42:42.490Z,5.97
2018-09-18T17:45:11.418Z,8.00
2018-09-18T17:47:40.459Z,4.90
2018-09-18T17:50:09.125Z,6.40
2018-09-18T17:52:38.027Z,7.40
2018-09-18T17:55:06.977Z,7.63
2018-09-18T17:57:35.847Z,9.47
2018-09-18T18:00:05.402Z,7.40
2018-09-18T18:02:34.081Z,7.87
2018-09-18T18:05:03.174Z,5.63
2018-09-18T18:07:31.989Z,6.80
2018-09-18T18:10:00.936Z,8.93
2018-09-18T18:12:29.673Z,8.07
2018-09-18T18:14:58.508Z,9.73
2018-09-18T18:17:27.537Z,12.67
2018-09-18T18:19:56.266Z,9.60
2018-09-18T18:22:25.075Z,7.77
2018-09-18T18:24:53.881Z,7.63
2018-09-18T18:27:22.788Z,10.23
2018-09-18T18:29:51.611Z,7.77
2018-09-18T18:32:20.316Z,8.13
2018-09-18T18:34:50.200Z,8.17
2018-09-18T18:37:19.136Z,9.70
2018-09-18T18:39:48.029Z,11.73
2018-09-18T18:42:16.986Z,6.83
2018-09-18T18:44:45.809Z,12.63
2018-09-18T18:47:14.475Z,7.87
2018-09-18T18:49:43.351Z,9.03
2018-09-18T18:52:12.275Z,9.43
2018-09-18T18:54:41.029Z,8.53
2018-09-18T18:57:16.170Z,15.50
2018-09-18T18:59:45.065Z,7.33
2018-09-18T19:02:13.776Z,8.37
2018-09-18T19:04:42.422Z,6.03
2018-09-18T19:07:11.359Z,9.67
2018-09-18T19:09:40.019Z,7.80
2018-09-18T19:12:09.126Z,7.50
2018-09-18T19:14:37.887Z,9.60
2018-09-18T19:17:06.680Z,8.37
2018-09-18T19:19:35.361Z,9.43
2018-09-18T19:22:04.111Z,9.60
2018-09-18T19:24:32.791Z,9.73
2018-09-18T19:27:01.632Z,10.83
2018-09-18T19:29:30.394Z,10.87
2018-09-18T19:31:59.233Z,7.87
2018-09-18T19:34:29.348Z,11.80
2018-09-18T19:36:59.384Z,11.03
2018-09-18T19:39:28.111Z,11.40
2018-09-18T19:41:56.976Z,14.60
2018-09-18T19:44:26.138Z,17.10
2018-09-18T19:46:54.818Z,11.03
2018-09-18T19:49:24.112Z,9.40
2018-09-18T19:51:53.053Z,11.43
2018-09-18T19:54:21.806Z,11.23
2018-09-18T19:56:50.625Z,14.67
2018-09-18T19:59:19.650Z,15.63
2018-09-18T20:01:48.712Z,16.97
2018-09-18T20:04:17.745Z,18.27
2018-09-18T20:06:46.490Z,16.27
2018-09-18T20:09:15.384Z,13.80
2018-09-18T20:11:44.660Z,17.20
2018-09-18T20:14:13.404Z,15.40
2018-09-18T20:16:42.285Z,14.60
2018-09-18T20:19:11.031Z,18.03
2018-09-18T20:21:39.862Z,14.43
2018-09-18T20:24:08.688Z,13.20
2018-09-18T20:26:37.499Z,17.17
2018-09-18T20:29:06.390Z,13.83
2018-09-18T20:31:35.068Z,20.27
2018-09-18T20:34:03.721Z,13.63
2018-09-18T20:36:32.487Z,13.00
2018-09-18T20:39:01.686Z,13.43
2018-09-18T20:41:30.477Z,20.13
2018-09-18T20:44:06.084Z,19.00
2018-09-18T20:46:34.947Z,17.70
2018-09-18T20:49:04.004Z,17.23
2018-09-18T20:51:32.844Z,14.00
2018-09-18T20:54:01.630Z,13.47
2018-09-18T20:56:30.449Z,15.00
2018-09-18T20:58:59.192Z,14.17
2018-09-18T21:01:28.012Z,15.90
2018-09-18T21:03:56.736Z,10.90
2018-09-18T21:06:25.450Z,11.27
2018-09-18T21:09:01.332Z,20.13
2018-09-18T21:11:29.972Z,17.67
2018-09-18T21:13:58.690Z,17.97
2018-09-18T21:16:27.347Z,19.53
2018-09-18T21:18:56.147Z,12.87
2018-09-18T21:21:25.046Z,14.23
2018-09-18T21:23:53.835Z,17.27
2018-09-18T21:26:22.526Z,14.53
2018-09-18T21:28:51.189Z,12.23
2018-09-18T21:31:19.845Z,17.37
2018-09-18T21:33:48.569Z,12.00
2018-09-18T21:36:17.198Z,13.20
2018-09-18T21:38:45.858Z,18.20
2018-09-18T21:41:14.545Z,16.30
2018-09-18T21:43:43.220Z,13.03
2018-09-18T21:46:11.894Z,15.90
2018-09-18T21:48:40.634Z,14.90
2018-09-18T21:51:10.278Z,16.60
2018-09-18T21:53:38.922Z,17.83
2018-09-18T21:56:07.762Z,12.67
2018-09-18T21:58:36.398Z,15.63
2018-09-18T22:01:06.382Z,16.57
2018-09-18T22:03:35.465Z,18.23
2018-09-18T22:06:04.455Z,13.80
2018-09-18T22:08:33.438Z,17.57
2018-09-18T22:11:02.143Z,14.53
2018-09-18T22:13:31.003Z,15.43
2018-09-18T22:15:59.837Z,20.43
2018-09-18T22:18:28.974Z,17.13
2018-09-18T22:20:57.628Z,16.37
2018-09-18T22:23:26.478Z,11.90
2018-09-18T22:25:55.676Z,16.50
2018-09-18T22:28:24.361Z,12.10
2018-09-18T22:30:53.116Z,16.67
2018-09-18T22:33:22.581Z,17.30
2018-09-18T22:35:51.646Z,17.93
2018-09-18T22:38:20.305Z,15.50
2018-09-18T22:40:48.954Z,12.17
2018-09-18T22:43:17.647Z,15.90
2018-09-18T22:45:46.342Z,14.60
2018-09-18T22:48:15.216Z,15.27
2018-09-18T22:50:44.082Z,18.50
2018-09-18T22:53:12.838Z,17.63
2018-09-18T22:55:41.870Z,17.07
2018-09-18T22:58:10.513Z,17.20
2018-09-18T23:00:39.327Z,23.70
2018-09-18T23:03:08.495Z,14.17
2018-09-18T23:05:37.433Z,18.40
2018-09-18T23:08:06.552Z,19.30
2018-09-18T23:10:35.313Z,17.57
2018-09-18T23:13:04.290Z,18.70
2018-09-18T23:15:32.932Z,13.73
2018-09-18T23:18:01.689Z,18.17
2018-09-18T23:20:30.383Z,15.00
2018-09-18T23:22:59.332Z,13.87
2018-09-18T23:25:27.955Z,18.30
2018-09-18T23:27:56.580Z,19.60
2018-09-18T23:30:25.208Z,15.53
2018-09-18T23:32:53.909Z,20.20
2018-09-18T23:35:22.606Z,14.27
2018-09-18T23:37:51.225Z,16.43
2018-09-18T23:40:19.938Z,18.57
2018-09-18T23:42:48.572Z,20.93
2018-09-18T23:45:17.400Z,12.57
2018-09-18T23:47:46.469Z,18.10
2018-09-18T23:50:15.098Z,18.47
2018-09-18T23:52:43.738Z,14.27
2018-09-18T23:55:13.569Z,15.90
2018-09-18T23:57:43.220Z,17.47
